sensor_id;sensor_type;location;lat;lon;timestamp;pressure;altitude;pressure_sealevel;temperature;humidity
76156;BME280;64906;51.290;7.348;2023-07-31T00:00:28;98294.97;;;21.74;57.25
76156;BME280;64906;51.290;7.348;2023-07-31T00:02:54;98299.97;;;21.72;56.88
76156;BME280;64906;51.290;7.348;2023-07-31T00:05:19;98302.31;;;21.78;56.74
76156;BME280;64906;51.290;7.348;2023-07-31T00:07:44;98287.75;;;21.78;56.98
76156;BME280;64906;51.290;7.348;2023-07-31T00:10:10;98288.25;;;21.80;57.03
76156;BME280;64906;51.290;7.348;2023-07-31T00:12:35;98274.03;;;21.78;56.61
76156;BME280;64906;51.290;7.348;2023-07-31T00:15:01;98282.56;;;21.76;56.53
76156;BME280;64906;51.290;7.348;2023-07-31T00:17:27;98272.19;;;21.73;56.92
76156;BME280;64906;51.290;7.348;2023-07-31T00:19:53;98279.19;;;21.79;56.67
76156;BME280;64906;51.290;7.348;2023-07-31T00:22:18;98280.66;;;21.77;57.02
76156;BME280;64906;51.290;7.348;2023-07-31T00:24:43;98275.94;;;21.77;56.63
76156;BME280;64906;51.290;7.348;2023-07-31T00:27:08;98267.19;;;21.75;56.79
76156;BME280;64906;51.290;7.348;2023-07-31T00:29:34;98279.28;;;21.74;56.90
76156;BME280;64906;51.290;7.348;2023-07-31T00:32:00;98269.94;;;21.75;56.87
76156;BME280;64906;51.290;7.348;2023-07-31T00:34:26;98282.03;;;21.74;56.56
76156;BME280;64906;51.290;7.348;2023-07-31T00:36:51;98278.19;;;21.75;56.78
76156;BME280;64906;51.290;7.348;2023-07-31T00:39:16;98267.47;;;21.74;56.67
76156;BME280;64906;51.290;7.348;2023-07-31T00:41:42;98270.44;;;21.77;56.50
76156;BME280;64906;51.290;7.348;2023-07-31T00:44:07;98285.31;;;21.76;56.71
76156;BME280;64906;51.290;7.348;2023-07-31T00:46:32;98284.19;;;21.77;56.53
76156;BME280;64906;51.290;7.348;2023-07-31T00:48:59;98279.81;;;21.76;56.83
76156;BME280;64906;51.290;7.348;2023-07-31T00:51:24;98278.63;;;21.69;56.76
76156;BME280;64906;51.290;7.348;2023-07-31T00:53:50;98275.88;;;21.69;56.92
76156;BME280;64906;51.290;7.348;2023-07-31T00:56:16;98286.56;;;21.70;56.96
76156;BME280;64906;51.290;7.348;2023-07-31T00:58:41;98277.19;;;21.71;56.63
76156;BME280;64906;51.290;7.348;2023-07-31T01:01:06;98271.19;;;21.69;57.13
76156;BME280;64906;51.290;7.348;2023-07-31T01:03:32;98272.50;;;21.72;56.65
76156;BME280;64906;51.290;7.348;2023-07-31T01:08:49;98256.81;;;21.72;56.81
76156;BME280;64906;51.290;7.348;2023-07-31T01:11:23;98266.69;;;21.73;56.57
76156;BME280;64906;51.290;7.348;2023-07-31T01:13:51;98259.56;;;21.72;56.92
76156;BME280;64906;51.290;7.348;2023-07-31T01:16:16;98271.59;;;21.76;56.92
76156;BME280;64906;51.290;7.348;2023-07-31T01:18:42;98265.47;;;21.79;56.81
76156;BME280;64906;51.290;7.348;2023-07-31T01:21:22;98265.56;;;21.74;56.86
76156;BME280;64906;51.290;7.348;2023-07-31T01:24:24;98277.09;;;21.76;56.75
76156;BME280;64906;51.290;7.348;2023-07-31T01:26:56;98262.00;;;21.74;56.72
76156;BME280;64906;51.290;7.348;2023-07-31T01:29:38;98263.84;;;21.78;56.66
76156;BME280;64906;51.290;7.348;2023-07-31T01:32:06;98253.19;;;21.77;56.50
76156;BME280;64906;51.290;7.348;2023-07-31T01:34:33;98261.31;;;21.68;56.64
76156;BME280;64906;51.290;7.348;2023-07-31T01:36:59;98265.69;;;21.69;57.07
76156;BME280;64906;51.290;7.348;2023-07-31T01:39:25;98262.31;;;21.72;56.69
76156;BME280;64906;51.290;7.348;2023-07-31T01:41:51;98252.13;;;21.73;56.64
76156;BME280;64906;51.290;7.348;2023-07-31T01:44:16;98266.69;;;21.73;56.40
76156;BME280;64906;51.290;7.348;2023-07-31T01:46:41;98260.59;;;21.76;56.67
76156;BME280;64906;51.290;7.348;2023-07-31T01:49:06;98262.94;;;21.69;56.83
76156;BME280;64906;51.290;7.348;2023-07-31T01:51:32;98261.50;;;21.72;56.57
76156;BME280;64906;51.290;7.348;2023-07-31T01:54:01;98245.22;;;21.75;56.51
76156;BME280;64906;51.290;7.348;2023-07-31T01:56:26;98249.69;;;21.71;56.55
76156;BME280;64906;51.290;7.348;2023-07-31T01:58:51;98250.22;;;21.73;56.60
76156;BME280;64906;51.290;7.348;2023-07-31T02:01:17;98252.44;;;21.71;56.66
76156;BME280;64906;51.290;7.348;2023-07-31T02:03:42;98256.66;;;21.69;56.86
76156;BME280;64906;51.290;7.348;2023-07-31T02:06:07;98252.13;;;21.73;56.52
76156;BME280;64906;51.290;7.348;2023-07-31T02:08:32;98250.84;;;21.70;56.69
76156;BME280;64906;51.290;7.348;2023-07-31T02:10:58;98248.56;;;21.72;56.74
76156;BME280;64906;51.290;7.348;2023-07-31T02:13:23;98235.47;;;21.69;56.45
76156;BME280;64906;51.290;7.348;2023-07-31T02:15:48;98241.97;;;21.73;56.45
76156;BME280;64906;51.290;7.348;2023-07-31T02:18:13;98254.06;;;21.72;56.86
76156;BME280;64906;51.290;7.348;2023-07-31T02:20:39;98245.34;;;21.70;56.54
76156;BME280;64906;51.290;7.348;2023-07-31T02:23:04;98244.84;;;21.68;56.79
76156;BME280;64906;51.290;7.348;2023-07-31T02:25:30;98243.91;;;21.73;56.26
76156;BME280;64906;51.290;7.348;2023-07-31T02:27:55;98238.84;;;21.66;56.85
76156;BME280;64906;51.290;7.348;2023-07-31T02:30:20;98232.22;;;21.67;56.69
76156;BME280;64906;51.290;7.348;2023-07-31T02:32:46;98240.75;;;21.66;56.58
76156;BME280;64906;51.290;7.348;2023-07-31T02:37:47;98231.41;;;21.67;56.90
76156;BME280;64906;51.290;7.348;2023-07-31T02:40:12;98221.84;;;21.64;56.60
76156;BME280;64906;51.290;7.348;2023-07-31T02:42:37;98236.91;;;21.67;56.65
76156;BME280;64906;51.290;7.348;2023-07-31T02:45:03;98232.84;;;21.64;56.87
76156;BME280;64906;51.290;7.348;2023-07-31T02:47:28;98235.47;;;21.69;56.70
76156;BME280;64906;51.290;7.348;2023-07-31T02:49:54;98228.16;;;21.65;56.87
76156;BME280;64906;51.290;7.348;2023-07-31T02:52:21;98225.94;;;21.67;56.70
76156;BME280;64906;51.290;7.348;2023-07-31T02:54:46;98219.63;;;21.66;56.77
76156;BME280;64906;51.290;7.348;2023-07-31T02:57:11;98224.91;;;21.63;56.56
76156;BME280;64906;51.290;7.348;2023-07-31T02:59:37;98217.00;;;21.61;56.75
76156;BME280;64906;51.290;7.348;2023-07-31T03:02:02;98223.63;;;21.60;57.03
76156;BME280;64906;51.290;7.348;2023-07-31T03:04:27;98222.69;;;21.65;56.73
76156;BME280;64906;51.290;7.348;2023-07-31T03:06:53;98222.34;;;21.66;56.87
76156;BME280;64906;51.290;7.348;2023-07-31T03:09:18;98215.84;;;21.62;56.69
76156;BME280;64906;51.290;7.348;2023-07-31T03:11:43;98207.81;;;21.66;56.75
76156;BME280;64906;51.290;7.348;2023-07-31T03:14:08;98204.13;;;21.70;56.45
76156;BME280;64906;51.290;7.348;2023-07-31T03:16:34;98206.00;;;21.61;56.94
76156;BME280;64906;51.290;7.348;2023-07-31T03:18:59;98200.69;;;21.65;56.54
76156;BME280;64906;51.290;7.348;2023-07-31T03:21:24;98209.94;;;21.69;56.46
76156;BME280;64906;51.290;7.348;2023-07-31T03:23:50;98200.44;;;21.75;56.28
76156;BME280;64906;51.290;7.348;2023-07-31T03:26:15;98198.59;;;21.62;56.94
76156;BME280;64906;51.290;7.348;2023-07-31T03:28:40;98199.69;;;21.61;56.83
76156;BME280;64906;51.290;7.348;2023-07-31T03:31:05;98211.19;;;21.63;56.80
76156;BME280;64906;51.290;7.348;2023-07-31T03:33:31;98203.75;;;21.63;56.49
76156;BME280;64906;51.290;7.348;2023-07-31T03:35:56;98195.38;;;21.68;56.71
76156;BME280;64906;51.290;7.348;2023-07-31T03:38:22;98188.88;;;21.64;56.68
76156;BME280;64906;51.290;7.348;2023-07-31T03:40:47;98210.06;;;21.64;56.78
76156;BME280;64906;51.290;7.348;2023-07-31T03:43:12;98202.31;;;21.66;56.25
76156;BME280;64906;51.290;7.348;2023-07-31T03:45:38;98197.94;;;21.65;56.37
76156;BME280;64906;51.290;7.348;2023-07-31T03:48:05;98202.63;;;21.64;56.30
76156;BME280;64906;51.290;7.348;2023-07-31T03:50:30;98191.75;;;21.59;56.54
76156;BME280;64906;51.290;7.348;2023-07-31T03:52:56;98196.78;;;21.57;56.64
76156;BME280;64906;51.290;7.348;2023-07-31T03:55:21;98201.97;;;21.59;56.72
76156;BME280;64906;51.290;7.348;2023-07-31T03:57:47;98191.97;;;21.63;56.80
76156;BME280;64906;51.290;7.348;2023-07-31T04:00:13;98199.88;;;21.64;56.67
76156;BME280;64906;51.290;7.348;2023-07-31T04:02:38;98191.63;;;21.64;56.25
76156;BME280;64906;51.290;7.348;2023-07-31T04:05:03;98184.84;;;21.62;56.80
76156;BME280;64906;51.290;7.348;2023-07-31T04:07:29;98185.34;;;21.64;56.25
76156;BME280;64906;51.290;7.348;2023-07-31T04:09:54;98182.41;;;21.60;56.49
76156;BME280;64906;51.290;7.348;2023-07-31T04:12:19;98186.59;;;21.58;56.79
76156;BME280;64906;51.290;7.348;2023-07-31T04:14:44;98181.16;;;21.66;56.37
76156;BME280;64906;51.290;7.348;2023-07-31T04:17:10;98182.75;;;21.67;56.08
76156;BME280;64906;51.290;7.348;2023-07-31T04:19:35;98184.53;;;21.63;56.66
76156;BME280;64906;51.290;7.348;2023-07-31T04:22:00;98178.84;;;21.60;56.09
76156;BME280;64906;51.290;7.348;2023-07-31T04:24:25;98172.91;;;21.66;56.35
76156;BME280;64906;51.290;7.348;2023-07-31T04:26:52;98174.97;;;21.61;56.60
76156;BME280;64906;51.290;7.348;2023-07-31T04:29:17;98175.97;;;21.65;56.52
76156;BME280;64906;51.290;7.348;2023-07-31T04:31:42;98177.91;;;21.64;56.18
76156;BME280;64906;51.290;7.348;2023-07-31T04:34:08;98175.66;;;21.66;56.06
76156;BME280;64906;51.290;7.348;2023-07-31T04:36:34;98177.91;;;21.64;56.43
76156;BME280;64906;51.290;7.348;2023-07-31T04:39:00;98176.47;;;21.67;56.27
76156;BME280;64906;51.290;7.348;2023-07-31T04:41:25;98183.09;;;21.66;56.28
76156;BME280;64906;51.290;7.348;2023-07-31T04:43:50;98173.53;;;21.63;56.47
76156;BME280;64906;51.290;7.348;2023-07-31T04:46:16;98165.31;;;21.63;56.50
76156;BME280;64906;51.290;7.348;2023-07-31T04:48:42;98175.47;;;21.63;56.57
76156;BME280;64906;51.290;7.348;2023-07-31T04:51:07;98179.72;;;21.69;56.22
76156;BME280;64906;51.290;7.348;2023-07-31T04:53:32;98171.91;;;21.62;56.24
76156;BME280;64906;51.290;7.348;2023-07-31T04:55:57;98172.41;;;21.64;56.43
76156;BME280;64906;51.290;7.348;2023-07-31T04:58:23;98168.06;;;21.63;56.20
76156;BME280;64906;51.290;7.348;2023-07-31T05:00:48;98167.22;;;21.63;56.03
76156;BME280;64906;51.290;7.348;2023-07-31T05:03:13;98157.88;;;21.64;56.16
76156;BME280;64906;51.290;7.348;2023-07-31T05:05:39;98160.63;;;21.64;56.24
76156;BME280;64906;51.290;7.348;2023-07-31T05:08:04;98154.63;;;21.62;56.26
76156;BME280;64906;51.290;7.348;2023-07-31T05:10:29;98148.00;;;21.63;56.16
76156;BME280;64906;51.290;7.348;2023-07-31T05:12:55;98158.34;;;21.66;56.03
76156;BME280;64906;51.290;7.348;2023-07-31T05:15:20;98144.16;;;21.64;56.19
76156;BME280;64906;51.290;7.348;2023-07-31T05:17:45;98144.44;;;21.62;56.15
76156;BME280;64906;51.290;7.348;2023-07-31T05:20:11;98137.84;;;21.63;56.57
76156;BME280;64906;51.290;7.348;2023-07-31T05:22:36;98134.59;;;21.61;56.52
76156;BME280;64906;51.290;7.348;2023-07-31T05:25:02;98124.09;;;21.63;56.33
76156;BME280;64906;51.290;7.348;2023-07-31T05:27:27;98132.72;;;21.70;56.03
76156;BME280;64906;51.290;7.348;2023-07-31T05:29:52;98129.31;;;21.73;56.57
76156;BME280;64906;51.290;7.348;2023-07-31T05:32:17;98124.47;;;21.70;56.25
76156;BME280;64906;51.290;7.348;2023-07-31T05:34:43;98123.16;;;21.68;56.30
76156;BME280;64906;51.290;7.348;2023-07-31T05:37:10;98130.41;;;21.64;56.58
76156;BME280;64906;51.290;7.348;2023-07-31T05:39:36;98127.97;;;21.62;56.58
76156;BME280;64906;51.290;7.348;2023-07-31T05:42:01;98132.22;;;21.68;56.40
76156;BME280;64906;51.290;7.348;2023-07-31T05:44:26;98126.56;;;21.73;55.79
76156;BME280;64906;51.290;7.348;2023-07-31T05:46:52;98124.94;;;21.72;56.14
76156;BME280;64906;51.290;7.348;2023-07-31T05:49:17;98123.34;;;21.71;56.13
76156;BME280;64906;51.290;7.348;2023-07-31T05:51:42;98126.41;;;21.70;56.13
76156;BME280;64906;51.290;7.348;2023-07-31T05:54:07;98110.56;;;21.67;56.53
76156;BME280;64906;51.290;7.348;2023-07-31T05:56:33;98113.47;;;21.70;56.23
76156;BME280;64906;51.290;7.348;2023-07-31T05:58:59;98099.88;;;21.65;56.46
76156;BME280;64906;51.290;7.348;2023-07-31T06:01:24;98096.50;;;21.68;56.12
76156;BME280;64906;51.290;7.348;2023-07-31T06:03:50;98090.19;;;21.68;56.24
76156;BME280;64906;51.290;7.348;2023-07-31T06:06:15;98098.09;;;21.69;56.27
76156;BME280;64906;51.290;7.348;2023-07-31T06:08:40;98100.53;;;21.71;56.05
76156;BME280;64906;51.290;7.348;2023-07-31T06:11:06;98100.06;;;21.69;56.33
76156;BME280;64906;51.290;7.348;2023-07-31T06:13:33;98102.94;;;21.64;56.31
76156;BME280;64906;51.290;7.348;2023-07-31T06:15:59;98096.78;;;21.58;56.64
76156;BME280;64906;51.290;7.348;2023-07-31T06:18:24;98095.78;;;21.54;56.53
76156;BME280;64906;51.290;7.348;2023-07-31T06:20:50;98087.06;;;21.52;56.82
76156;BME280;64906;51.290;7.348;2023-07-31T06:23:18;98098.19;;;21.56;57.05
76156;BME280;64906;51.290;7.348;2023-07-31T06:25:44;98097.72;;;21.54;57.29
76156;BME280;64906;51.290;7.348;2023-07-31T06:28:09;98091.72;;;21.52;57.60
76156;BME280;64906;51.290;7.348;2023-07-31T06:30:34;98093.34;;;21.53;57.02
76156;BME280;64906;51.290;7.348;2023-07-31T06:33:00;98090.13;;;21.51;57.30
76156;BME280;64906;51.290;7.348;2023-07-31T06:35:25;98091.53;;;21.48;57.42
76156;BME280;64906;51.290;7.348;2023-07-31T06:37:50;98092.06;;;21.50;57.16
76156;BME280;64906;51.290;7.348;2023-07-31T06:40:16;98095.91;;;21.49;57.54
76156;BME280;64906;51.290;7.348;2023-07-31T06:42:42;98096.22;;;21.48;57.44
76156;BME280;64906;51.290;7.348;2023-07-31T06:45:07;98093.16;;;21.49;57.71
76156;BME280;64906;51.290;7.348;2023-07-31T06:47:33;98081.38;;;21.49;57.69
76156;BME280;64906;51.290;7.348;2023-07-31T06:49:58;98086.75;;;21.54;57.76
76156;BME280;64906;51.290;7.348;2023-07-31T06:52:23;98076.69;;;21.49;57.64
76156;BME280;64906;51.290;7.348;2023-07-31T06:55:01;98084.63;;;21.51;57.75
76156;BME280;64906;51.290;7.348;2023-07-31T06:57:27;98089.31;;;21.50;58.10
76156;BME280;64906;51.290;7.348;2023-07-31T06:59:52;98084.91;;;21.49;58.05
76156;BME280;64906;51.290;7.348;2023-07-31T07:02:17;98087.97;;;21.48;57.99
76156;BME280;64906;51.290;7.348;2023-07-31T07:04:43;98093.97;;;21.50;57.60
76156;BME280;64906;51.290;7.348;2023-07-31T07:07:08;98089.13;;;21.47;58.15
76156;BME280;64906;51.290;7.348;2023-07-31T07:09:33;98082.81;;;21.46;57.89
76156;BME280;64906;51.290;7.348;2023-07-31T07:11:58;98089.44;;;21.45;58.23
76156;BME280;64906;51.290;7.348;2023-07-31T07:14:24;98081.84;;;21.42;58.22
76156;BME280;64906;51.290;7.348;2023-07-31T07:16:52;98078.97;;;21.47;58.21
76156;BME280;64906;51.290;7.348;2023-07-31T07:19:17;98085.25;;;21.48;58.25
76156;BME280;64906;51.290;7.348;2023-07-31T07:21:42;98086.69;;;21.45;58.44
76156;BME280;64906;51.290;7.348;2023-07-31T07:24:08;98083.13;;;21.45;58.16
76156;BME280;64906;51.290;7.348;2023-07-31T07:26:33;98094.13;;;21.45;58.36
76156;BME280;64906;51.290;7.348;2023-07-31T07:28:58;98091.38;;;21.45;58.53
76156;BME280;64906;51.290;7.348;2023-07-31T07:31:26;98092.69;;;21.47;58.36
76156;BME280;64906;51.290;7.348;2023-07-31T07:33:51;98085.09;;;21.44;58.24
76156;BME280;64906;51.290;7.348;2023-07-31T07:36:16;98086.19;;;21.43;58.40
76156;BME280;64906;51.290;7.348;2023-07-31T07:38:42;98088.94;;;21.43;58.76
76156;BME280;64906;51.290;7.348;2023-07-31T07:41:07;98084.75;;;21.46;58.26
76156;BME280;64906;51.290;7.348;2023-07-31T07:43:32;98082.81;;;21.46;58.72
76156;BME280;64906;51.290;7.348;2023-07-31T07:45:58;98087.84;;;21.44;58.45
76156;BME280;64906;51.290;7.348;2023-07-31T07:48:23;98089.44;;;21.45;58.51
76156;BME280;64906;51.290;7.348;2023-07-31T07:50:50;98082.03;;;21.46;58.85
76156;BME280;64906;51.290;7.348;2023-07-31T07:53:15;98069.41;;;21.45;58.61
76156;BME280;64906;51.290;7.348;2023-07-31T07:55:41;98065.03;;;21.44;59.00
76156;BME280;64906;51.290;7.348;2023-07-31T07:58:06;98066.34;;;21.46;58.95
76156;BME280;64906;51.290;7.348;2023-07-31T08:00:31;98071.03;;;21.46;58.98
76156;BME280;64906;51.290;7.348;2023-07-31T08:02:56;98061.84;;;21.50;58.77
76156;BME280;64906;51.290;7.348;2023-07-31T08:05:23;98068.94;;;21.51;58.39
76156;BME280;64906;51.290;7.348;2023-07-31T08:07:48;98069.91;;;21.47;59.67
76156;BME280;64906;51.290;7.348;2023-07-31T08:10:14;98069.13;;;21.55;58.74
76156;BME280;64906;51.290;7.348;2023-07-31T08:12:39;98061.06;;;21.58;58.63
76156;BME280;64906;51.290;7.348;2023-07-31T08:15:05;98058.50;;;21.62;58.94
76156;BME280;64906;51.290;7.348;2023-07-31T08:17:30;98058.31;;;21.58;59.08
76156;BME280;64906;51.290;7.348;2023-07-31T08:19:56;98060.56;;;21.56;58.99
76156;BME280;64906;51.290;7.348;2023-07-31T08:22:23;98055.06;;;21.56;59.47
76156;BME280;64906;51.290;7.348;2023-07-31T08:24:48;98055.91;;;21.57;59.51
76156;BME280;64906;51.290;7.348;2023-07-31T08:27:14;98047.34;;;21.58;59.54
76156;BME280;64906;51.290;7.348;2023-07-31T08:29:39;98057.19;;;21.59;59.39
76156;BME280;64906;51.290;7.348;2023-07-31T08:32:05;98049.75;;;21.60;59.72
76156;BME280;64906;51.290;7.348;2023-07-31T08:34:30;98044.75;;;21.62;59.84
76156;BME280;64906;51.290;7.348;2023-07-31T08:36:55;98052.03;;;21.66;59.67
76156;BME280;64906;51.290;7.348;2023-07-31T08:39:21;98044.94;;;21.74;59.16
76156;BME280;64906;51.290;7.348;2023-07-31T08:41:47;98048.53;;;21.74;59.37
76156;BME280;64906;51.290;7.348;2023-07-31T08:44:13;98048.84;;;21.73;59.27
76156;BME280;64906;51.290;7.348;2023-07-31T08:46:39;98044.81;;;21.70;59.68
76156;BME280;64906;51.290;7.348;2023-07-31T08:49:05;98047.56;;;21.70;58.77
76156;BME280;64906;51.290;7.348;2023-07-31T08:51:34;98053.03;;;21.70;58.87
76156;BME280;64906;51.290;7.348;2023-07-31T08:53:59;98045.59;;;21.71;58.38
76156;BME280;64906;51.290;7.348;2023-07-31T08:56:25;98043.66;;;21.71;58.36
76156;BME280;64906;51.290;7.348;2023-07-31T08:58:51;98061.66;;;21.77;58.21
76156;BME280;64906;51.290;7.348;2023-07-31T09:01:17;98053.09;;;21.79;58.17
76156;BME280;64906;51.290;7.348;2023-07-31T09:03:43;98048.91;;;21.81;57.78
76156;BME280;64906;51.290;7.348;2023-07-31T09:06:09;98046.78;;;21.87;58.14
76156;BME280;64906;51.290;7.348;2023-07-31T09:08:37;98040.38;;;21.91;58.07
76156;BME280;64906;51.290;7.348;2023-07-31T09:11:06;98048.75;;;21.86;58.42
76156;BME280;64906;51.290;7.348;2023-07-31T09:13:32;98049.25;;;21.88;58.41
76156;BME280;64906;51.290;7.348;2023-07-31T09:15:58;98047.13;;;21.85;58.95
76156;BME280;64906;51.290;7.348;2023-07-31T10:13:37;98011.72;;;21.84;58.39
76156;BME280;64906;51.290;7.348;2023-07-31T10:16:04;98017.38;;;21.87;58.33
76156;BME280;64906;51.290;7.348;2023-07-31T10:18:29;98011.91;;;21.87;58.56
76156;BME280;64906;51.290;7.348;2023-07-31T10:20:55;98001.41;;;21.89;58.02
76156;BME280;64906;51.290;7.348;2023-07-31T10:23:22;98013.69;;;21.92;58.04
76156;BME280;64906;51.290;7.348;2023-07-31T10:25:49;98016.41;;;21.92;57.93
76156;BME280;64906;51.290;7.348;2023-07-31T10:28:15;98007.41;;;21.91;57.60
76156;BME280;64906;51.290;7.348;2023-07-31T10:30:40;98007.72;;;21.98;57.53
76156;BME280;64906;51.290;7.348;2023-07-31T10:33:07;98014.84;;;21.99;57.21
76156;BME280;64906;51.290;7.348;2023-07-31T10:35:33;98006.44;;;21.96;57.27
76156;BME280;64906;51.290;7.348;2023-07-31T10:38:11;98011.59;;;21.97;57.11
76156;BME280;64906;51.290;7.348;2023-07-31T10:40:37;98009.00;;;21.92;57.23
76156;BME280;64906;51.290;7.348;2023-07-31T10:43:02;98011.44;;;21.94;57.73
76156;BME280;64906;51.290;7.348;2023-07-31T10:45:36;98010.59;;;21.93;57.76
76156;BME280;64906;51.290;7.348;2023-07-31T10:48:05;98011.75;;;21.92;57.24
76156;BME280;64906;51.290;7.348;2023-07-31T10:50:33;98010.78;;;21.97;57.53
76156;BME280;64906;51.290;7.348;2023-07-31T10:53:01;98003.50;;;21.92;57.17
76156;BME280;64906;51.290;7.348;2023-07-31T10:55:29;98012.38;;;21.89;57.63
76156;BME280;64906;51.290;7.348;2023-07-31T10:57:58;98004.16;;;21.89;57.58
76156;BME280;64906;51.290;7.348;2023-07-31T11:00:29;98006.41;;;21.87;57.69
76156;BME280;64906;51.290;7.348;2023-07-31T11:03:03;98013.34;;;21.85;57.41
76156;BME280;64906;51.290;7.348;2023-07-31T11:05:47;98006.41;;;21.87;57.49
76156;BME280;64906;51.290;7.348;2023-07-31T11:08:20;98003.31;;;21.89;57.22
76156;BME280;64906;51.290;7.348;2023-07-31T11:10:47;98005.91;;;21.85;57.64
76156;BME280;64906;51.290;7.348;2023-07-31T11:13:13;98002.19;;;21.81;57.73
76156;BME280;64906;51.290;7.348;2023-07-31T11:15:39;97996.06;;;21.84;57.65
76156;BME280;64906;51.290;7.348;2023-07-31T11:18:05;98001.56;;;21.84;57.38
76156;BME280;64906;51.290;7.348;2023-07-31T11:20:35;97999.28;;;21.86;57.42
76156;BME280;64906;51.290;7.348;2023-07-31T11:23:02;97998.81;;;21.93;57.32
76156;BME280;64906;51.290;7.348;2023-07-31T11:25:31;97999.00;;;21.96;57.81
76156;BME280;64906;51.290;7.348;2023-07-31T11:27:57;97999.47;;;21.90;58.32
76156;BME280;64906;51.290;7.348;2023-07-31T11:30:23;98008.19;;;21.92;58.45
76156;BME280;64906;51.290;7.348;2023-07-31T11:32:49;97999.47;;;21.90;58.70
76156;BME280;64906;51.290;7.348;2023-07-31T11:35:15;98004.97;;;21.90;58.65
76156;BME280;64906;51.290;7.348;2023-07-31T11:37:41;97989.09;;;21.87;58.59
76156;BME280;64906;51.290;7.348;2023-07-31T11:40:07;97995.91;;;21.89;58.68
76156;BME280;64906;51.290;7.348;2023-07-31T11:42:34;97993.81;;;21.86;59.03
76156;BME280;64906;51.290;7.348;2023-07-31T11:45:02;97988.47;;;21.90;58.80
76156;BME280;64906;51.290;7.348;2023-07-31T11:47:28;97991.56;;;21.88;58.69
76156;BME280;64906;51.290;7.348;2023-07-31T11:49:53;97987.97;;;21.88;58.83
76156;BME280;64906;51.290;7.348;2023-07-31T11:52:18;97987.66;;;21.89;58.92
76156;BME280;64906;51.290;7.348;2023-07-31T11:54:46;97986.84;;;21.89;58.73
76156;BME280;64906;51.290;7.348;2023-07-31T11:57:12;97987.16;;;21.87;59.46
76156;BME280;64906;51.290;7.348;2023-07-31T11:59:38;97978.09;;;21.87;59.34
76156;BME280;64906;51.290;7.348;2023-07-31T12:02:04;97980.06;;;21.86;59.51
76156;BME280;64906;51.290;7.348;2023-07-31T12:04:30;97986.06;;;21.88;59.28
76156;BME280;64906;51.290;7.348;2023-07-31T12:06:56;97991.06;;;21.86;59.45
76156;BME280;64906;51.290;7.348;2023-07-31T12:09:21;97985.06;;;21.84;59.49
76156;BME280;64906;51.290;7.348;2023-07-31T12:11:47;97980.06;;;21.86;59.30
76156;BME280;64906;51.290;7.348;2023-07-31T12:14:23;97979.56;;;21.84;59.12
76156;BME280;64906;51.290;7.348;2023-07-31T12:16:54;97980.22;;;21.90;59.44
76156;BME280;64906;51.290;7.348;2023-07-31T12:19:20;97977.00;;;21.88;59.37
76156;BME280;64906;51.290;7.348;2023-07-31T12:21:46;97972.78;;;21.90;59.16
76156;BME280;64906;51.290;7.348;2023-07-31T12:24:11;97971.66;;;21.83;59.40
76156;BME280;64906;51.290;7.348;2023-07-31T12:26:36;97963.09;;;21.84;59.19
76156;BME280;64906;51.290;7.348;2023-07-31T12:29:07;97973.28;;;21.92;59.45
76156;BME280;64906;51.290;7.348;2023-07-31T12:31:34;97973.78;;;21.94;59.73
76156;BME280;64906;51.290;7.348;2023-07-31T12:33:59;97968.59;;;21.93;60.19
76156;BME280;64906;51.290;7.348;2023-07-31T12:36:25;97965.84;;;21.93;59.70
76156;BME280;64906;51.290;7.348;2023-07-31T12:38:51;97962.28;;;21.92;59.78
76156;BME280;64906;51.290;7.348;2023-07-31T12:41:17;97961.00;;;21.90;60.02
76156;BME280;64906;51.290;7.348;2023-07-31T12:43:44;97957.09;;;21.82;60.32
76156;BME280;64906;51.290;7.348;2023-07-31T12:46:10;97953.88;;;21.89;59.81
76156;BME280;64906;51.290;7.348;2023-07-31T12:48:36;97958.41;;;21.85;59.75
76156;BME280;64906;51.290;7.348;2023-07-31T12:51:02;97954.84;;;21.84;59.89
76156;BME280;64906;51.290;7.348;2023-07-31T12:53:28;97958.09;;;21.86;60.43
76156;BME280;64906;51.290;7.348;2023-07-31T12:55:54;97960.19;;;21.89;60.58
76156;BME280;64906;51.290;7.348;2023-07-31T12:58:19;97963.88;;;21.93;60.26
76156;BME280;64906;51.290;7.348;2023-07-31T13:00:45;97952.28;;;21.96;60.04
76156;BME280;64906;51.290;7.348;2023-07-31T13:03:10;97955.50;;;21.90;60.18
76156;BME280;64906;51.290;7.348;2023-07-31T13:05:36;97963.09;;;21.93;59.59
76156;BME280;64906;51.290;7.348;2023-07-31T13:08:01;97949.84;;;21.95;60.17
76156;BME280;64906;51.290;7.348;2023-07-31T13:10:27;97945.63;;;21.97;60.07
76156;BME280;64906;51.290;7.348;2023-07-31T13:12:53;97941.28;;;21.96;60.35
76156;BME280;64906;51.290;7.348;2023-07-31T13:15:18;97937.88;;;21.99;59.70
76156;BME280;64906;51.290;7.348;2023-07-31T13:17:45;97933.50;;;21.98;59.73
76156;BME280;64906;51.290;7.348;2023-07-31T13:20:11;97936.75;;;22.00;60.15
76156;BME280;64906;51.290;7.348;2023-07-31T13:22:36;97911.84;;;21.97;59.99
76156;BME280;64906;51.290;7.348;2023-07-31T13:25:01;97909.56;;;21.90;60.12
76156;BME280;64906;51.290;7.348;2023-07-31T13:27:27;97913.47;;;21.89;60.04
76156;BME280;64906;51.290;7.348;2023-07-31T13:29:52;97912.97;;;21.87;60.40
76156;BME280;64906;51.290;7.348;2023-07-31T13:32:18;97911.53;;;21.90;59.79
76156;BME280;64906;51.290;7.348;2023-07-31T13:34:45;97914.63;;;21.88;60.11
76156;BME280;64906;51.290;7.348;2023-07-31T13:37:10;97910.06;;;21.92;60.34
76156;BME280;64906;51.290;7.348;2023-07-31T13:39:36;97908.78;;;21.90;60.29
76156;BME280;64906;51.290;7.348;2023-07-31T13:42:05;97909.41;;;21.87;60.30
76156;BME280;64906;51.290;7.348;2023-07-31T13:44:37;97897.47;;;21.91;60.33
76156;BME280;64906;51.290;7.348;2023-07-31T13:47:02;97894.41;;;21.93;59.90
76156;BME280;64906;51.290;7.348;2023-07-31T13:49:28;97894.06;;;21.94;60.17
76156;BME280;64906;51.290;7.348;2023-07-31T13:51:54;97899.56;;;21.94;59.79
76156;BME280;64906;51.290;7.348;2023-07-31T13:54:19;97898.44;;;21.95;59.89